Time;durP1;ratioP1;P1;durP2;ratioP2;P2;SDS_P1;SDS_P2;PMS_P1;PMS_P2;Temp;Humidity;BMP_temperature;BMP_pressure;BME280_temperature;BME280_humidity;BME280_pressure;Samples;Min_cycle;Max_cycle;Signal;HPM_P1;HPM_P2
2021/09/24 00:00:51;;;;;;;6.80;6.13;;;13.20;99.90;;;;;;4992512;28;20942;-65
2021/09/24 00:03:16;;;;;;;7.60;6.80;;;13.10;99.90;;;;;;4993471;28;20435;-65
2021/09/24 00:05:42;;;;;;;7.13;6.47;;;13.10;99.90;;;;;;4993490;28;20176;-65
2021/09/24 00:08:07;;;;;;;6.57;5.97;;;13.10;99.90;;;;;;4993347;28;20183;-65
2021/09/24 00:10:33;;;;;;;6.33;5.73;;;13.10;99.90;;;;;;4993624;28;20179;-65
2021/09/24 00:12:59;;;;;;;6.43;5.93;;;13.00;99.90;;;;;;4993270;28;20207;-66
2021/09/24 00:15:24;;;;;;;6.57;5.87;;;12.80;99.90;;;;;;4993325;28;20699;-65
2021/09/24 00:17:50;;;;;;;6.20;5.70;;;12.80;99.90;;;;;;4993149;28;20672;-65
2021/09/24 00:20:15;;;;;;;7.47;5.20;;;12.80;99.90;;;;;;4993324;28;20230;-65
2021/09/24 00:22:42;;;;;;;6.73;6.13;;;12.90;99.90;;;;;;4993351;28;20238;-65
2021/09/24 00:25:08;;;;;;;5.80;5.30;;;12.90;99.90;;;;;;4993367;28;20250;-66
2021/09/24 00:27:34;;;;;;;7.03;6.43;;;12.80;99.90;;;;;;4993302;28;20795;-66
2021/09/24 00:29:59;;;;;;;7.33;6.30;;;12.80;99.90;;;;;;4993255;28;20441;-65
2021/09/24 00:32:25;;;;;;;9.77;7.83;;;12.80;99.90;;;;;;4992916;28;20207;-65
2021/09/24 00:34:50;;;;;;;6.60;6.10;;;12.70;99.90;;;;;;4992873;28;20230;-66
2021/09/24 00:37:16;;;;;;;6.20;5.60;;;12.80;99.90;;;;;;4992901;28;20259;-66
2021/09/24 00:39:42;;;;;;;8.23;6.10;;;12.80;99.90;;;;;;4993035;28;20226;-65
2021/09/24 00:42:08;;;;;;;7.03;5.63;;;12.80;99.90;;;;;;4992775;28;20672;-66
2021/09/24 00:44:47;;;;;;;6.33;5.73;;;12.70;99.90;;;;;;4992726;28;20673;-66
2021/09/24 00:47:14;;;;;;;6.80;6.07;;;12.70;99.90;;;;;;4992649;28;20167;-66
2021/09/24 00:49:39;;;;;;;6.00;5.50;;;12.70;99.90;;;;;;4992630;28;20422;-65
2021/09/24 00:52:05;;;;;;;9.00;6.43;;;12.70;99.90;;;;;;4975299;28;20442;-65
2021/09/24 00:54:31;;;;;;;6.90;6.30;;;12.70;99.90;;;;;;4987913;28;20203;-65
2021/09/24 00:56:57;;;;;;;6.63;6.00;;;12.70;99.90;;;;;;4973451;28;20494;-65
2021/09/24 00:59:24;;;;;;;9.77;7.27;;;12.70;99.90;;;;;;4981870;28;20928;-65
2021/09/24 01:01:50;;;;;;;7.20;6.50;;;12.70;99.90;;;;;;5007760;28;20303;-65
2021/09/24 01:04:15;;;;;;;7.40;6.30;;;12.70;99.90;;;;;;4992684;28;20509;-66
2021/09/24 01:06:41;;;;;;;6.63;6.03;;;12.60;99.90;;;;;;4992673;28;20262;-65
2021/09/24 01:09:07;;;;;;;6.70;6.10;;;12.50;99.90;;;;;;5007457;28;20199;-66
2021/09/24 01:11:36;;;;;;;6.53;5.93;;;12.50;99.90;;;;;;4992612;28;20450;-65
2021/09/24 01:14:02;;;;;;;9.60;8.60;;;12.60;99.90;;;;;;4991913;28;20462;-65
2021/09/24 01:16:27;;;;;;;9.10;7.97;;;12.60;99.90;;;;;;4992115;28;20440;-65
2021/09/24 01:18:53;;;;;;;6.67;6.07;;;12.60;99.90;;;;;;4991910;28;20638;-66
2021/09/24 01:21:18;;;;;;;7.93;7.23;;;12.60;99.90;;;;;;4992325;28;20542;-65
2021/09/24 01:23:44;;;;;;;7.93;6.57;;;12.50;99.90;;;;;;4992313;28;20172;-66
2021/09/24 01:26:09;;;;;;;7.50;6.80;;;12.50;99.90;;;;;;4996344;28;20203;-66
2021/09/24 01:28:35;;;;;;;8.17;6.43;;;12.50;99.90;;;;;;4978923;28;20183;-66
2021/09/24 01:31:01;;;;;;;6.97;6.27;;;12.50;99.90;;;;;;4983067;28;20195;-65
2021/09/24 01:33:27;;;;;;;6.87;6.27;;;12.50;99.90;;;;;;4996415;28;20176;-66
2021/09/24 01:35:52;;;;;;;6.90;6.30;;;12.50;99.90;;;;;;4995939;28;20470;-66
2021/09/24 01:38:18;;;;;;;6.27;5.77;;;12.50;99.90;;;;;;4995748;28;20179;-66
2021/09/24 01:40:43;;;;;;;9.30;6.40;;;12.60;99.90;;;;;;4995558;28;20179;-66
2021/09/24 01:43:09;;;;;;;7.27;6.57;;;12.50;99.90;;;;;;4996126;28;20210;-66
2021/09/24 01:45:34;;;;;;;6.77;5.90;;;12.50;99.90;;;;;;4977913;28;20175;-66
2021/09/24 01:48:00;;;;;;;6.83;6.13;;;12.50;99.90;;;;;;4995587;28;20250;-65
2021/09/24 01:50:25;;;;;;;6.67;6.07;;;12.60;99.90;;;;;;4995929;28;20752;-65
2021/09/24 01:52:51;;;;;;;7.00;6.00;;;12.60;99.90;;;;;;4995311;28;20572;-66
2021/09/24 01:55:16;;;;;;;7.50;6.70;;;12.60;99.90;;;;;;4995648;28;20297;-65
2021/09/24 01:57:42;;;;;;;6.50;5.90;;;12.60;99.90;;;;;;4995587;28;20203;-66
2021/09/24 02:00:11;;;;;;;9.20;7.67;;;12.50;99.90;;;;;;4995650;28;20175;-66
2021/09/24 02:02:36;;;;;;;8.17;6.47;;;12.50;99.90;;;;;;4995441;28;20192;-66
2021/09/24 02:05:04;;;;;;;7.10;6.30;;;12.50;99.90;;;;;;4995399;28;20461;-66
2021/09/24 02:07:29;;;;;;;6.53;5.93;;;12.50;99.90;;;;;;4995166;28;20270;-65
2021/09/24 02:09:55;;;;;;;8.90;5.93;;;12.40;99.90;;;;;;4995316;28;20518;-65
2021/09/24 02:12:20;;;;;;;7.87;6.83;;;12.40;99.90;;;;;;4995453;28;20258;-65
2021/09/24 02:14:46;;;;;;;6.60;6.10;;;12.30;99.90;;;;;;4995357;28;20331;-65
2021/09/24 02:17:11;;;;;;;8.10;7.40;;;12.20;99.90;;;;;;4995528;28;20254;-65
2021/09/24 02:19:37;;;;;;;8.30;6.83;;;12.10;99.90;;;;;;4977918;28;20179;-66
2021/09/24 02:22:03;;;;;;;9.30;7.07;;;12.10;99.90;;;;;;4995673;28;20589;-66
2021/09/24 02:24:28;;;;;;;9.10;7.83;;;12.10;99.90;;;;;;4994910;28;20187;-65
2021/09/24 02:26:55;;;;;;;6.97;6.27;;;12.10;99.90;;;;;;4995156;28;20525;-65
2021/09/24 02:29:21;;;;;;;7.47;6.67;;;12.10;99.90;;;;;;4994482;28;20202;-65
2021/09/24 02:31:46;;;;;;;7.40;6.33;;;12.10;99.90;;;;;;4995151;28;20979;-65
2021/09/24 02:34:12;;;;;;;6.73;6.13;;;12.10;99.90;;;;;;4994918;28;20211;-65
2021/09/24 02:36:38;;;;;;;7.10;6.40;;;12.20;99.90;;;;;;4993670;28;20191;-65
2021/09/24 02:39:05;;;;;;;7.27;6.67;;;12.20;99.90;;;;;;4994864;28;20184;-66
2021/09/24 02:41:31;;;;;;;7.20;6.50;;;12.30;99.90;;;;;;4994976;28;20482;-65
2021/09/24 02:43:57;;;;;;;6.33;5.73;;;12.20;99.90;;;;;;4995143;28;20855;-66
2021/09/24 02:46:22;;;;;;;7.30;6.30;;;12.20;99.90;;;;;;4995198;28;20589;-66
2021/09/24 02:48:48;;;;;;;7.50;6.70;;;12.10;99.90;;;;;;4994510;28;20210;-66
2021/09/24 02:51:13;;;;;;;6.47;5.83;;;12.00;99.90;;;;;;4993996;28;20192;-66
2021/09/24 02:53:39;;;;;;;7.60;6.20;;;12.00;99.90;;;;;;4994927;28;20183;-66
2021/09/24 02:56:05;;;;;;;8.00;7.20;;;12.00;99.90;;;;;;4995100;28;20205;-66
2021/09/24 02:58:30;;;;;;;7.27;6.70;;;12.00;99.90;;;;;;4994322;28;20600;-66
2021/09/24 03:00:56;;;;;;;7.37;6.67;;;12.00;99.90;;;;;;4994087;28;20653;-65
2021/09/24 03:03:21;;;;;;;7.87;7.17;;;12.10;99.90;;;;;;4994794;28;20179;-66
2021/09/24 03:05:47;;;;;;;7.00;6.30;;;11.90;99.90;;;;;;4994658;28;20226;-66
2021/09/24 03:08:12;;;;;;;7.70;7.10;;;11.90;99.90;;;;;;4993596;28;20266;-65
2021/09/24 03:10:38;;;;;;;9.20;7.07;;;11.90;99.90;;;;;;4994883;28;20188;-66
2021/09/24 03:13:03;;;;;;;7.87;7.07;;;11.80;99.90;;;;;;4993548;28;20200;-66
2021/09/24 03:15:29;;;;;;;7.70;6.73;;;11.80;99.90;;;;;;4994450;28;20210;-65
2021/09/24 03:17:55;;;;;;;7.53;6.73;;;11.80;99.90;;;;;;4994147;28;20254;-66
2021/09/24 03:20:21;;;;;;;10.13;7.27;;;11.80;99.90;;;;;;4994564;28;20668;-66
2021/09/24 03:22:46;;;;;;;10.10;7.73;;;11.70;99.90;;;;;;4994318;28;20195;-66
2021/09/24 03:25:12;;;;;;;8.63;7.83;;;11.70;99.90;;;;;;4993671;28;20463;-66
2021/09/24 03:27:38;;;;;;;8.33;6.80;;;11.70;99.90;;;;;;4994053;28;20712;-65
2021/09/24 03:30:05;;;;;;;8.40;7.60;;;11.80;99.90;;;;;;4994296;28;20270;-66
2021/09/24 03:32:32;;;;;;;7.70;6.93;;;11.70;99.90;;;;;;4993755;28;20603;-66
2021/09/24 03:34:57;;;;;;;9.43;7.77;;;11.60;99.90;;;;;;4993156;28;20509;-66
2021/09/24 03:37:23;;;;;;;8.80;7.67;;;11.50;99.90;;;;;;4995433;28;20430;-66
2021/09/24 03:39:48;;;;;;;8.73;7.83;;;11.50;99.90;;;;;;4994188;28;20544;-66
2021/09/24 03:42:14;;;;;;;8.70;7.83;;;11.60;99.90;;;;;;4983462;28;20560;-67
2021/09/24 03:44:39;;;;;;;8.50;6.97;;;11.60;99.90;;;;;;4974920;28;20265;-66
2021/09/24 03:47:05;;;;;;;8.77;7.87;;;11.70;99.90;;;;;;4974427;28;20180;-66
2021/09/24 03:49:31;;;;;;;8.40;7.60;;;11.70;99.90;;;;;;4957132;28;20180;-66
2021/09/24 03:51:58;;;;;;;10.60;7.83;;;11.80;99.90;;;;;;4974487;28;20501;-66
2021/09/24 03:54:24;;;;;;;11.33;7.80;;;11.80;99.90;;;;;;4984991;28;20642;-66
2021/09/24 03:56:49;;;;;;;10.23;7.73;;;11.80;99.90;;;;;;4994058;28;20462;-66
2021/09/24 03:59:15;;;;;;;8.67;7.40;;;11.80;99.90;;;;;;4993537;28;20265;-66
2021/09/24 04:01:40;;;;;;;7.97;7.17;;;11.70;99.90;;;;;;4993828;28;20195;-66
2021/09/24 04:04:06;;;;;;;7.07;6.47;;;11.80;99.90;;;;;;4993763;28;20175;-66
2021/09/24 04:06:32;;;;;;;7.43;6.73;;;11.80;99.90;;;;;;4994093;28;20172;-66
2021/09/24 04:08:57;;;;;;;9.00;8.10;;;11.80;99.90;;;;;;4993516;28;20230;-65
2021/09/24 04:11:23;;;;;;;8.97;8.10;;;11.70;99.90;;;;;;4993619;28;20231;-66
2021/09/24 04:13:48;;;;;;;8.23;7.43;;;11.70;99.90;;;;;;4993534;28;20176;-66
2021/09/24 04:16:14;;;;;;;8.57;7.77;;;11.70;99.90;;;;;;4993595;28;20174;-66
2021/09/24 04:18:40;;;;;;;8.83;7.10;;;11.70;99.90;;;;;;4994151;28;20211;-66
2021/09/24 04:21:06;;;;;;;9.60;8.30;;;11.60;99.90;;;;;;5001866;28;20660;-66
2021/09/24 04:23:31;;;;;;;9.70;8.10;;;11.60;99.90;;;;;;5012397;28;20175;-66
2021/09/24 04:25:57;;;;;;;9.07;7.80;;;11.60;99.90;;;;;;4998191;28;20198;-66
2021/09/24 04:28:23;;;;;;;9.07;7.73;;;11.50;99.90;;;;;;4991711;28;20541;-66
2021/09/24 04:30:49;;;;;;;9.30;8.20;;;11.60;99.90;;;;;;4995004;28;20186;-66
2021/09/24 04:33:15;;;;;;;8.33;7.50;;;11.60;99.90;;;;;;4999305;23;20480;-67
2021/09/24 04:35:41;;;;;;;9.03;8.13;;;11.60;99.90;;;;;;4973533;28;20239;-67
2021/09/24 04:38:06;;;;;;;9.77;8.77;;;11.60;99.90;;;;;;4973874;28;20424;-67
2021/09/24 04:40:32;;;;;;;10.10;8.20;;;11.60;99.90;;;;;;4977216;28;20203;-67
2021/09/24 04:42:57;;;;;;;12.03;8.07;;;11.60;99.90;;;;;;4973318;28;20196;-67
2021/09/24 04:45:23;;;;;;;9.10;8.30;;;11.60;99.90;;;;;;4973629;28;20179;-67
2021/09/24 04:47:48;;;;;;;7.40;6.67;;;11.60;99.90;;;;;;4972946;28;20172;-67
2021/09/24 04:50:14;;;;;;;7.57;6.83;;;11.60;99.90;;;;;;4973466;28;20258;-67
2021/09/24 04:52:40;;;;;;;10.40;7.80;;;11.60;99.90;;;;;;4973477;28;20203;-67
2021/09/24 04:55:07;;;;;;;8.37;7.67;;;11.60;99.90;;;;;;4973268;28;20200;-67
2021/09/24 04:57:33;;;;;;;10.40;7.87;;;11.60;99.90;;;;;;4973038;28;20176;-65
2021/09/24 04:59:59;;;;;;;8.33;7.53;;;11.60;99.90;;;;;;4972679;28;20416;-65
2021/09/24 05:02:24;;;;;;;8.50;7.30;;;11.50;99.90;;;;;;4973170;28;20455;-65
2021/09/24 05:04:50;;;;;;;7.97;6.80;;;11.50;99.90;;;;;;4973110;28;20255;-65
2021/09/24 05:07:16;;;;;;;8.20;7.40;;;11.50;99.90;;;;;;4972852;28;20180;-65
2021/09/24 05:09:41;;;;;;;7.83;7.10;;;11.50;99.90;;;;;;4973243;28;20230;-65
2021/09/24 05:12:07;;;;;;;8.00;7.20;;;11.40;99.90;;;;;;4960393;28;20213;-65
2021/09/24 05:14:33;;;;;;;8.30;7.50;;;11.50;99.90;;;;;;4953495;29;20647;-65
2021/09/24 05:16:59;;;;;;;10.20;7.63;;;11.50;99.90;;;;;;4953196;28;20447;-65
2021/09/24 05:19:24;;;;;;;9.60;8.27;;;11.50;99.90;;;;;;4953389;28;20181;-65
2021/09/24 05:21:50;;;;;;;8.87;7.97;;;11.50;99.90;;;;;;4953960;28;20570;-65
2021/09/24 05:24:15;;;;;;;8.53;7.70;;;11.60;99.90;;;;;;4953873;28;20173;-66
2021/09/24 05:26:41;;;;;;;9.33;7.93;;;11.60;99.90;;;;;;4953854;28;20198;-67
2021/09/24 05:29:07;;;;;;;9.83;8.83;;;11.70;99.90;;;;;;4953387;28;20176;-67
2021/09/24 05:31:33;;;;;;;8.93;8.03;;;11.70;99.90;;;;;;4984107;28;20663;-65
2021/09/24 05:33:59;;;;;;;10.03;8.10;;;11.80;99.90;;;;;;4934607;29;20472;-65
2021/09/24 05:36:24;;;;;;;9.00;8.20;;;11.80;99.90;;;;;;4943886;29;20201;-65
2021/09/24 05:38:50;;;;;;;9.70;8.77;;;11.90;99.90;;;;;;4942818;28;20930;-65
2021/09/24 05:41:15;;;;;;;9.40;8.50;;;11.90;99.90;;;;;;4953477;28;20177;-65
2021/09/24 05:43:41;;;;;;;10.10;8.10;;;11.80;99.90;;;;;;4953407;28;20589;-64
2021/09/24 05:46:07;;;;;;;10.20;9.17;;;11.80;99.90;;;;;;4953485;28;20189;-65
2021/09/24 05:48:32;;;;;;;9.63;8.70;;;11.90;99.90;;;;;;4953146;28;20558;-64
2021/09/24 05:50:59;;;;;;;10.37;8.67;;;11.90;99.90;;;;;;4953614;28;20666;-64
2021/09/24 05:53:24;;;;;;;8.73;7.93;;;11.90;99.90;;;;;;4953189;28;20452;-66
2021/09/24 05:55:50;;;;;;;9.07;8.17;;;12.10;99.90;;;;;;4941334;28;20457;-64
2021/09/24 05:58:16;;;;;;;9.00;8.10;;;12.20;99.90;;;;;;4942938;28;20173;-64
2021/09/24 06:00:42;;;;;;;10.10;8.77;;;12.40;99.90;;;;;;4972912;28;20172;-64
2021/09/24 06:03:07;;;;;;;10.73;8.63;;;12.50;99.90;;;;;;4958381;28;20200;-64
2021/09/24 06:05:34;;;;;;;10.23;8.03;;;12.60;99.90;;;;;;4953494;28;20833;-64
2021/09/24 06:07:59;;;;;;;8.40;7.43;;;12.70;99.90;;;;;;4947300;28;20178;-64
2021/09/24 06:10:25;;;;;;;12.30;9.17;;;12.80;99.90;;;;;;4935610;29;20915;-64
2021/09/24 06:12:51;;;;;;;8.00;7.30;;;13.00;99.90;;;;;;4956333;29;20192;-65
2021/09/24 06:15:19;;;;;;;11.77;8.20;;;13.20;99.90;;;;;;4956925;28;20484;-65
2021/09/24 06:17:45;;;;;;;11.60;9.20;;;13.30;99.90;;;;;;4956670;28;20200;-65
2021/09/24 06:20:11;;;;;;;10.10;9.07;;;13.40;99.90;;;;;;4954739;29;20428;-65
2021/09/24 06:22:37;;;;;;;9.77;8.57;;;13.60;99.90;;;;;;4956863;28;20447;-65
2021/09/24 06:25:03;;;;;;;8.43;7.63;;;13.80;99.90;;;;;;4954897;29;20432;-65
2021/09/24 06:27:30;;;;;;;9.07;8.27;;;14.00;99.90;;;;;;4956424;28;20177;-64
2021/09/24 06:29:56;;;;;;;9.43;8.40;;;14.10;99.90;;;;;;4956700;28;20863;-65
2021/09/24 06:32:22;;;;;;;8.47;7.73;;;14.20;99.90;;;;;;4956501;28;20559;-64
2021/09/24 06:34:48;;;;;;;11.60;10.40;;;14.30;99.90;;;;;;4954299;29;20283;-65
2021/09/24 06:37:15;;;;;;;9.90;8.90;;;14.50;99.90;;;;;;4937305;29;20505;-65
2021/09/24 06:39:41;;;;;;;9.13;8.10;;;14.60;99.90;;;;;;4937308;29;20201;-64
2021/09/24 06:42:07;;;;;;;9.87;8.97;;;14.80;99.90;;;;;;4937275;29;20939;-65
2021/09/24 06:44:33;;;;;;;9.57;8.17;;;14.90;99.90;;;;;;4958790;28;20431;-64
2021/09/24 06:46:59;;;;;;;8.70;7.80;;;15.00;99.90;;;;;;4975728;28;20188;-65
2021/09/24 06:49:25;;;;;;;12.10;8.20;;;15.10;99.90;;;;;;4956289;28;20433;-65
2021/09/24 06:51:52;;;;;;;11.23;9.90;;;15.40;99.90;;;;;;4972198;28;20483;-64
2021/09/24 06:54:18;;;;;;;7.97;7.37;;;15.50;99.90;;;;;;4975602;28;20451;-65
2021/09/24 06:56:44;;;;;;;8.07;7.27;;;15.70;99.90;;;;;;4975607;28;20913;-67
2021/09/24 06:59:09;;;;;;;8.37;7.53;;;16.00;99.90;;;;;;4975296;28;20475;-65
2021/09/24 07:01:35;;;;;;;13.23;7.83;;;16.30;99.90;;;;;;4975473;28;20196;-65
2021/09/24 07:04:01;;;;;;;8.40;7.60;;;16.40;99.90;;;;;;4975433;28;20247;-65
2021/09/24 07:06:26;;;;;;;8.57;7.27;;;16.50;99.90;;;;;;4969319;28;20205;-65
2021/09/24 07:08:52;;;;;;;7.30;6.70;;;16.50;99.90;;;;;;4955825;28;20177;-65
2021/09/24 07:11:18;;;;;;;9.17;8.40;;;16.90;99.90;;;;;;4955817;28;20169;-65
2021/09/24 07:13:43;;;;;;;7.00;6.30;;;17.10;99.90;;;;;;4955949;28;20420;-65
2021/09/24 07:16:09;;;;;;;8.60;7.53;;;17.10;99.90;;;;;;4955791;28;20223;-65
2021/09/24 07:18:35;;;;;;;8.03;7.33;;;17.20;99.90;;;;;;4953595;28;20271;-65
2021/09/24 07:21:00;;;;;;;8.30;7.60;;;17.40;99.90;;;;;;4955457;28;20181;-65
2021/09/24 07:23:26;;;;;;;8.20;7.40;;;17.40;99.90;;;;;;4953920;28;20256;-65
2021/09/24 07:25:52;;;;;;;7.33;6.73;;;17.40;99.90;;;;;;4954924;28;20205;-65
2021/09/24 07:28:18;;;;;;;8.00;7.30;;;17.40;99.90;;;;;;4944910;28;20210;-65
2021/09/24 07:30:44;;;;;;;8.90;7.37;;;17.40;99.90;;;;;;4936680;29;20524;-65
2021/09/24 07:33:09;;;;;;;7.20;6.63;;;17.60;99.90;;;;;;4952371;29;20496;-65
2021/09/24 07:35:35;;;;;;;7.27;6.60;;;17.80;99.90;;;;;;4955328;29;20572;-65
2021/09/24 07:38:01;;;;;;;9.03;6.83;;;17.90;99.90;;;;;;4954654;29;20181;-65
2021/09/24 07:40:27;;;;;;;7.93;7.13;;;18.10;99.90;;;;;;4942428;29;20189;-65
2021/09/24 07:42:54;;;;;;;7.53;6.73;;;18.30;99.90;;;;;;4954819;29;20189;-65
2021/09/24 07:45:20;;;;;;;8.23;7.43;;;18.30;99.90;;;;;;4949296;28;20457;-65
2021/09/24 07:47:46;;;;;;;7.70;7.00;;;18.50;99.90;;;;;;4935959;29;20425;-65
2021/09/24 07:50:12;;;;;;;7.43;6.83;;;18.80;99.90;;;;;;4936073;29;20556;-65
2021/09/24 07:52:37;;;;;;;8.57;7.77;;;19.00;99.90;;;;;;4944797;29;20251;-65
2021/09/24 07:55:03;;;;;;;8.57;7.67;;;19.20;99.90;;;;;;4954652;28;20655;-65
2021/09/24 07:57:29;;;;;;;7.00;6.40;;;19.20;99.90;;;;;;4954598;28;20570;-65
2021/09/24 07:59:55;;;;;;;9.20;8.30;;;19.20;99.90;;;;;;4954626;28;20429;-65
2021/09/24 08:02:20;;;;;;;10.03;9.23;;;19.20;99.90;;;;;;4954793;28;20196;-65
2021/09/24 08:04:46;;;;;;;8.40;7.80;;;19.50;99.90;;;;;;4954955;28;20515;-65
2021/09/24 08:07:11;;;;;;;9.30;7.07;;;19.80;99.90;;;;;;4954569;28;20639;-65
2021/09/24 08:09:37;;;;;;;8.00;7.00;;;19.90;99.90;;;;;;4954596;28;20628;-65
2021/09/24 08:12:03;;;;;;;7.73;6.60;;;20.40;99.90;;;;;;4953210;28;20264;-65
2021/09/24 08:14:29;;;;;;;7.50;6.90;;;20.70;99.90;;;;;;4954850;28;20592;-65
2021/09/24 08:16:54;;;;;;;7.33;6.30;;;21.10;99.90;;;;;;4954579;28;20448;-65
2021/09/24 08:19:20;;;;;;;8.03;7.20;;;21.50;99.90;;;;;;4954444;28;20177;-65
2021/09/24 08:21:45;;;;;;;6.87;6.37;;;21.80;99.90;;;;;;4954247;29;20560;-65
2021/09/24 08:24:11;;;;;;;8.10;6.27;;;22.40;99.90;;;;;;4954445;28;20213;-65
2021/09/24 08:26:36;;;;;;;7.57;6.30;;;22.70;99.90;;;;;;4954471;28;20184;-65
2021/09/24 08:29:02;;;;;;;7.83;7.20;;;22.90;99.90;;;;;;4953884;28;20587;-65
2021/09/24 08:31:29;;;;;;;6.67;6.17;;;23.10;99.90;;;;;;4954391;28;20200;-65
2021/09/24 08:33:57;;;;;;;6.17;5.60;;;22.90;99.90;;;;;;4954241;28;20227;-65
2021/09/24 08:36:23;;;;;;;7.53;6.73;;;23.10;99.90;;;;;;4954474;28;20451;-65
2021/09/24 08:38:49;;;;;;;5.90;5.40;;;23.50;99.90;;;;;;4953527;28;20428;-65
2021/09/24 08:41:14;;;;;;;8.63;6.53;;;23.80;99.90;;;;;;4954224;28;20180;-65
2021/09/24 08:43:40;;;;;;;6.70;6.20;;;23.80;99.90;;;;;;4954098;28;20224;-65
2021/09/24 08:46:06;;;;;;;6.40;5.90;;;23.70;99.90;;;;;;4953789;28;21777;-65
2021/09/24 08:48:34;;;;;;;7.33;6.70;;;24.40;99.00;;;;;;4953813;28;20440;-65
2021/09/24 08:51:00;;;;;;;7.10;6.50;;;24.90;98.40;;;;;;4954318;28;20256;-66
2021/09/24 08:53:26;;;;;;;7.47;6.70;;;25.70;97.40;;;;;;4953866;28;20796;-65
2021/09/24 08:55:52;;;;;;;10.03;6.60;;;26.00;95.90;;;;;;4952292;29;20529;-66
2021/09/24 08:58:18;;;;;;;5.90;5.40;;;26.30;94.70;;;;;;4953471;28;20460;-66
2021/09/24 09:00:44;;;;;;;5.57;5.13;;;27.30;94.50;;;;;;4953688;28;20663;-66
2021/09/24 09:03:13;;;;;;;6.40;5.80;;;28.10;92.20;;;;;;4947659;28;20461;-66
2021/09/24 09:05:45;;;;;;;6.23;5.63;;;28.50;91.00;;;;;;4953621;28;20235;-66
2021/09/24 09:08:15;;;;;;;5.90;5.40;;;29.20;87.20;;;;;;4953531;28;20481;-66
2021/09/24 09:10:56;;;;;;;5.40;5.00;;;29.50;83.50;;;;;;4953659;29;20855;-66
2021/09/24 09:13:28;;;;;;;5.83;5.33;;;30.20;83.00;;;;;;4953737;28;20456;-66
2021/09/24 09:16:09;;;;;;;5.20;4.90;;;30.50;76.50;;;;;;4953888;28;20472;-66
2021/09/24 09:18:38;;;;;;;5.40;4.90;;;31.50;73.40;;;;;;4953376;28;20997;-66
2021/09/24 09:21:06;;;;;;;5.57;5.17;;;31.90;70.90;;;;;;4953685;29;20847;-66
2021/09/24 09:23:33;;;;;;;5.30;4.90;;;32.30;68.90;;;;;;4968480;28;20432;-66
2021/09/24 09:26:03;;;;;;;6.07;5.43;;;31.90;65.80;;;;;;4953918;28;20447;-67
2021/09/24 09:28:31;;;;;;;5.60;5.10;;;32.60;63.00;;;;;;4953212;29;20437;-67
2021/09/24 09:30:57;;;;;;;5.80;5.10;;;33.40;61.00;;;;;;4952655;29;20524;-67
2021/09/24 09:33:24;;;;;;;6.57;5.83;;;34.00;59.90;;;;;;4936444;28;20966;-66
2021/09/24 09:36:00;;;;;;;5.80;5.00;;;33.50;59.00;;;;;;4944970;29;20471;-66
2021/09/24 09:38:28;;;;;;;5.40;4.90;;;34.40;56.70;;;;;;4953459;28;20499;-67
2021/09/24 09:40:57;;;;;;;6.07;5.67;;;34.90;55.90;;;;;;4953778;28;20431;-67
2021/09/24 09:43:28;;;;;;;4.53;4.23;;;35.10;53.50;;;;;;4953557;28;20528;-66
2021/09/24 09:45:54;;;;;;;4.53;4.13;;;33.50;55.00;;;;;;4955694;28;20965;-66
2021/09/24 09:48:20;;;;;;;4.93;4.53;;;32.90;55.30;;;;;;4956604;28;20444;-67
2021/09/24 09:50:46;;;;;;;4.40;4.10;;;30.30;57.40;;;;;;4945792;29;20472;-66
2021/09/24 09:53:17;;;;;;;4.37;4.03;;;29.90;58.50;;;;;;4959618;28;20204;-66
2021/09/24 09:55:54;;;;;;;4.27;3.97;;;30.80;58.80;;;;;;4952940;28;20542;-66
2021/09/24 09:58:25;;;;;;;4.77;4.47;;;31.60;57.00;;;;;;4944978;29;20432;-67
2021/09/24 10:00:57;;;;;;;4.27;3.97;;;32.80;55.40;;;;;;4956217;29;20514;-66
2021/09/24 10:03:50;;;;;;;4.20;3.83;;;33.90;54.70;;;;;;4957399;28;20794;-66
2021/09/24 10:06:29;;;;;;;4.57;4.27;;;35.70;52.10;;;;;;4955904;29;20984;-67
2021/09/24 10:09:04;;;;;;;4.03;3.73;;;36.70;50.10;;;;;;4952744;28;20441;-67
2021/09/24 10:11:33;;;;;;;4.50;4.20;;;36.30;49.20;;;;;;4957042;29;20454;-66
2021/09/24 10:14:03;;;;;;;5.23;4.80;;;34.40;49.90;;;;;;4956647;28;20432;-67
2021/09/24 10:16:32;;;;;;;5.63;5.13;;;33.70;50.80;;;;;;4957024;28;20949;-66
2021/09/24 10:18:58;;;;;;;5.47;4.93;;;33.00;51.30;;;;;;4956705;29;20447;-65
2021/09/24 10:21:24;;;;;;;5.13;4.70;;;31.90;52.20;;;;;;4955814;28;20839;-66
2021/09/24 10:23:50;;;;;;;4.67;4.27;;;31.60;53.40;;;;;;4954461;28;20444;-65
2021/09/24 10:26:24;;;;;;;4.50;4.20;;;33.40;52.40;;;;;;4954159;29;20436;-67
2021/09/24 10:28:55;;;;;;;5.10;3.97;;;35.40;49.90;;;;;;4956057;28;20173;-67
2021/09/24 10:33:55;;;;;;;8.70;4.17;;;38.20;45.70;;;;;;5013106;23;20559;-65
2021/09/24 10:36:35;;;;;;;6.83;6.30;;;38.80;45.00;;;;;;5000073;28;20493;-65
2021/09/24 10:39:02;;;;;;;6.27;4.20;;;36.50;44.90;;;;;;4995193;28;20759;-65
2021/09/24 10:41:28;;;;;;;4.50;4.10;;;33.30;46.50;;;;;;4995283;28;20446;-66
2021/09/24 10:43:56;;;;;;;4.30;3.93;;;31.90;49.40;;;;;;4995340;28;20422;-65
2021/09/24 10:46:24;;;;;;;4.30;4.00;;;32.50;50.20;;;;;;4995275;28;20199;-66
2021/09/24 10:49:23;;;;;;;3.83;3.63;;;32.10;49.30;;;;;;4994968;28;20419;-64
2021/09/24 10:51:57;;;;;;;6.00;4.20;;;33.70;48.20;;;;;;4995080;28;20473;-66
2021/09/24 10:54:25;;;;;;;4.23;3.93;;;34.00;48.10;;;;;;4994975;28;21049;-65
2021/09/24 10:57:08;;;;;;;4.37;3.80;;;35.70;46.90;;;;;;4993831;28;20821;-65
2021/09/24 10:59:34;;;;;;;7.47;3.90;;;36.90;45.40;;;;;;4994881;28;20458;-66
2021/09/24 11:02:20;;;;;;;4.13;3.83;;;37.70;43.80;;;;;;4994904;28;20581;-64
2021/09/24 11:04:47;;;;;;;4.40;4.00;;;38.30;42.50;;;;;;4994841;28;20426;-65
2021/09/24 11:07:30;;;;;;;4.53;4.13;;;38.70;42.50;;;;;;4994683;28;20549;-65
2021/09/24 11:09:56;;;;;;;3.77;3.47;;;39.10;41.70;;;;;;4995014;28;20426;-66
2021/09/24 11:12:21;;;;;;;4.30;4.00;;;39.10;41.30;;;;;;4994700;28;20504;-66
2021/09/24 11:15:08;;;;;;;4.83;3.80;;;40.00;40.70;;;;;;4993512;28;20319;-66
2021/09/24 11:17:46;;;;;;;4.77;4.37;;;40.60;39.80;;;;;;4994327;28;20203;-65
2021/09/24 11:20:33;;;;;;;5.47;5.07;;;38.70;39.60;;;;;;4994602;28;20423;-66
2021/09/24 11:22:59;;;;;;;5.03;4.70;;;37.20;40.90;;;;;;4994572;28;20439;-66
2021/09/24 11:25:25;;;;;;;4.20;3.73;;;36.50;41.20;;;;;;4994568;28;20430;-65
2021/09/24 11:27:53;;;;;;;5.20;4.80;;;36.50;41.60;;;;;;4994122;28;20484;-65
2021/09/24 11:30:24;;;;;;;4.90;4.50;;;33.80;43.70;;;;;;4994429;28;20175;-65
2021/09/24 11:32:53;;;;;;;5.40;4.90;;;31.20;47.00;;;;;;4994255;28;20462;-65
2021/09/24 11:35:51;;;;;;;5.57;5.17;;;30.90;48.70;;;;;;4994173;28;20466;-65
2021/09/24 11:38:19;;;;;;;4.37;4.07;;;33.60;46.00;;;;;;4981812;28;20435;-65
2021/09/24 11:40:53;;;;;;;4.43;4.13;;;37.00;42.50;;;;;;4994211;28;20485;-66
2021/09/24 11:43:27;;;;;;;4.83;4.53;;;38.90;40.60;;;;;;4994235;28;20462;-65
2021/09/24 11:45:56;;;;;;;4.10;3.80;;;38.10;40.10;;;;;;4992742;28;20451;-65
2021/09/24 11:48:31;;;;;;;3.50;3.20;;;38.90;40.10;;;;;;4983410;28;20490;-66
2021/09/24 11:51:07;;;;;;;5.60;3.90;;;38.90;39.80;;;;;;4990211;28;20469;-65
2021/09/24 11:53:46;;;;;;;4.90;4.53;;;39.50;38.80;;;;;;4994002;28;20537;-68
2021/09/24 11:56:15;;;;;;;4.00;3.80;;;37.40;39.50;;;;;;4993813;28;20498;-67
2021/09/24 11:58:41;;;;;;;4.20;3.53;;;35.80;40.50;;;;;;4993193;28;20415;-71
2021/09/24 12:01:10;;;;;;;5.03;4.67;;;35.20;41.50;;;;;;4989086;28;20449;-67
2021/09/24 12:03:35;;;;;;;4.87;4.43;;;35.80;40.80;;;;;;4992059;28;20199;-67
2021/09/24 12:06:08;;;;;;;4.90;4.60;;;35.90;40.80;;;;;;4988132;28;20439;-67
2021/09/24 12:08:45;;;;;;;4.67;4.37;;;36.40;39.90;;;;;;4990923;28;20179;-66
2021/09/24 12:11:16;;;;;;;5.80;4.53;;;38.40;39.10;;;;;;4993672;28;20439;-67
2021/09/24 12:13:56;;;;;;;4.83;4.53;;;41.00;37.70;;;;;;4993324;28;20458;-67
2021/09/24 12:16:30;;;;;;;5.03;4.63;;;40.70;36.20;;;;;;4988241;28;20470;-67
2021/09/24 12:18:59;;;;;;;5.70;5.03;;;40.20;37.70;;;;;;4993329;28;20838;-67
2021/09/24 12:21:37;;;;;;;5.77;5.20;;;39.80;36.70;;;;;;4993343;28;21113;-66
2021/09/24 12:24:14;;;;;;;5.43;5.00;;;39.80;36.50;;;;;;4993350;28;20429;-67
2021/09/24 12:26:43;;;;;;;4.90;4.60;;;37.10;37.90;;;;;;4993494;28;20530;-67
2021/09/24 12:29:10;;;;;;;5.60;5.30;;;38.10;38.20;;;;;;4992553;28;20805;-66
2021/09/24 12:31:43;;;;;;;5.23;4.93;;;37.10;38.90;;;;;;4991320;28;20967;-67
2021/09/24 12:34:12;;;;;;;5.50;5.10;;;39.80;37.70;;;;;;4992797;28;20450;-66
2021/09/24 12:36:56;;;;;;;5.23;4.93;;;40.50;36.20;;;;;;4993065;28;20431;-67
2021/09/24 12:39:23;;;;;;;4.97;4.57;;;39.90;37.00;;;;;;4991909;28;20509;-67
2021/09/24 12:41:50;;;;;;;5.00;4.70;;;40.00;36.80;;;;;;4993085;28;20442;-66
2021/09/24 12:44:16;;;;;;;5.50;5.10;;;40.60;36.40;;;;;;4993022;28;20418;-67
2021/09/24 12:46:51;;;;;;;4.60;4.30;;;40.70;36.10;;;;;;4993025;28;20525;-66
2021/09/24 12:49:19;;;;;;;5.07;4.67;;;38.80;36.10;;;;;;4992585;28;20421;-67